createdAt,value
2023-01-25T00:00:26.519Z,11.20
2023-01-25T00:01:03.226Z,10.35
2023-01-25T00:01:34.652Z,8.23
2023-01-25T00:02:06.103Z,9.75
2023-01-25T00:02:37.502Z,10.35
2023-01-25T00:03:09.007Z,8.45
2023-01-25T00:03:40.362Z,10.40
2023-01-25T00:04:11.716Z,8.73
2023-01-25T00:04:43.074Z,9.48
2023-01-25T00:05:14.473Z,9.35
2023-01-25T00:05:45.804Z,9.55
2023-01-25T00:06:17.171Z,9.25
2023-01-25T00:06:49.099Z,9.88
2023-01-25T00:07:20.463Z,8.93
2023-01-25T00:07:51.807Z,9.65
2023-01-25T00:08:23.470Z,11.88
2023-01-25T00:08:54.826Z,8.50
2023-01-25T00:09:26.442Z,8.15
2023-01-25T00:09:57.779Z,8.65
2023-01-25T00:10:29.146Z,9.68
2023-01-25T00:11:00.499Z,9.48
2023-01-25T00:11:31.846Z,12.65
2023-01-25T00:12:03.258Z,8.88
2023-01-25T00:12:34.631Z,9.30
2023-01-25T00:13:05.990Z,11.02
2023-01-25T00:13:37.369Z,9.52
2023-01-25T00:14:09.935Z,11.50
2023-01-25T00:14:41.343Z,8.85
2023-01-25T00:15:12.700Z,12.13
2023-01-25T00:15:44.052Z,10.75
2023-01-25T00:16:17.581Z,9.35
2023-01-25T00:16:49.110Z,9.43
2023-01-25T00:17:20.529Z,8.73
2023-01-25T00:17:51.878Z,10.82
2023-01-25T00:18:23.254Z,9.80
2023-01-25T00:18:54.642Z,9.23
2023-01-25T00:19:26.256Z,11.93
2023-01-25T00:19:57.604Z,8.95
2023-01-25T00:20:28.969Z,10.00
2023-01-25T00:21:00.325Z,10.18
2023-01-25T00:21:31.702Z,9.68
2023-01-25T00:22:03.062Z,11.27
2023-01-25T00:22:34.411Z,9.63
2023-01-25T00:23:05.775Z,16.40
2023-01-25T00:23:37.129Z,10.40
2023-01-25T00:24:08.643Z,7.32
2023-01-25T00:24:40.043Z,11.60
2023-01-25T00:25:11.386Z,9.65
2023-01-25T00:25:42.744Z,10.27
2023-01-25T00:26:14.267Z,9.15
2023-01-25T00:26:45.691Z,7.78
2023-01-25T00:27:17.049Z,9.57
2023-01-25T00:27:48.546Z,12.00
2023-01-25T00:28:19.895Z,11.00
2023-01-25T00:28:52.030Z,8.63
2023-01-25T00:29:23.430Z,10.57
2023-01-25T00:29:54.782Z,8.32
2023-01-25T00:30:26.106Z,10.10
2023-01-25T00:31:01.126Z,9.93
2023-01-25T00:31:37.755Z,9.98
2023-01-25T00:32:15.287Z,10.00
2023-01-25T00:32:48.161Z,11.57
2023-01-25T00:33:19.639Z,8.02
2023-01-25T00:33:52.381Z,9.25
2023-01-25T00:34:26.510Z,10.15
2023-01-25T00:34:57.829Z,10.60
2023-01-25T00:35:32.081Z,9.70
2023-01-25T00:36:23.392Z,10.43
2023-01-25T00:36:54.788Z,8.75
2023-01-25T00:37:29.221Z,11.32
2023-01-25T00:38:03.963Z,10.18
2023-01-25T00:38:35.327Z,9.88
2023-01-25T00:39:07.468Z,10.70
2023-01-25T00:39:38.901Z,10.70
2023-01-25T00:40:11.083Z,11.73
2023-01-25T00:40:42.393Z,10.27
2023-01-25T00:41:13.766Z,8.07
2023-01-25T00:41:45.126Z,10.25
2023-01-25T00:42:17.292Z,10.13
2023-01-25T00:42:48.660Z,9.05
2023-01-25T00:43:19.991Z,10.20
2023-01-25T00:43:51.349Z,11.15
2023-01-25T00:44:22.727Z,8.68
2023-01-25T00:44:54.062Z,11.57
2023-01-25T00:45:25.460Z,9.60
2023-01-25T00:46:05.982Z,8.88
2023-01-25T00:46:37.356Z,10.13
2023-01-25T00:47:09.541Z,9.02
2023-01-25T00:47:40.915Z,10.00
2023-01-25T00:48:12.280Z,10.45
2023-01-25T00:48:43.680Z,11.82
2023-01-25T00:49:20.108Z,9.63
2023-01-25T00:49:51.496Z,10.77
2023-01-25T00:50:22.863Z,10.80
2023-01-25T00:50:54.221Z,10.25
2023-01-25T00:51:25.845Z,9.75
2023-01-25T00:51:58.084Z,9.95
2023-01-25T00:52:29.435Z,10.82
2023-01-25T00:53:00.779Z,7.90
2023-01-25T00:53:32.138Z,10.45
2023-01-25T00:54:03.493Z,10.77
2023-01-25T00:54:34.924Z,10.15
2023-01-25T00:55:06.845Z,9.57
2023-01-25T00:55:38.397Z,9.77
2023-01-25T00:56:09.772Z,8.57
2023-01-25T00:56:41.122Z,11.93
2023-01-25T00:57:12.485Z,10.93
2023-01-25T00:57:43.868Z,11.00
2023-01-25T00:58:15.231Z,9.97
2023-01-25T00:58:46.663Z,12.32
2023-01-25T00:59:18.004Z,9.40
2023-01-25T00:59:49.368Z,10.57
2023-01-25T01:00:20.753Z,11.50
2023-01-25T01:00:53.176Z,12.30
2023-01-25T01:01:24.615Z,12.27
2023-01-25T01:01:55.990Z,12.23
2023-01-25T01:02:27.333Z,10.13
2023-01-25T01:02:58.692Z,12.85
2023-01-25T01:03:30.061Z,12.48
2023-01-25T01:04:01.456Z,13.00
2023-01-25T01:04:32.926Z,12.13
2023-01-25T01:05:04.436Z,12.60
2023-01-25T01:05:35.778Z,10.80
2023-01-25T01:06:08.876Z,13.00
2023-01-25T01:06:40.621Z,11.55
2023-01-25T01:07:13.081Z,10.38
2023-01-25T01:07:44.465Z,11.80
2023-01-25T01:08:15.921Z,11.50
2023-01-25T01:08:47.296Z,14.30
2023-01-25T01:09:18.886Z,11.40
2023-01-25T01:09:50.234Z,11.35
2023-01-25T01:10:21.916Z,12.57
2023-01-25T01:10:58.117Z,10.48
2023-01-25T01:11:29.487Z,13.32
2023-01-25T01:12:00.874Z,10.70
2023-01-25T01:12:34.314Z,12.48
2023-01-25T01:13:05.686Z,11.98
2023-01-25T01:13:37.079Z,9.98
2023-01-25T01:14:08.425Z,12.60
2023-01-25T01:14:39.789Z,11.45
2023-01-25T01:15:11.336Z,9.75
2023-01-25T01:15:42.698Z,11.00
2023-01-25T01:16:14.188Z,11.65
2023-01-25T01:16:45.969Z,13.63
2023-01-25T01:17:17.351Z,12.65
2023-01-25T01:17:48.672Z,10.93
2023-01-25T01:18:20.029Z,11.27
2023-01-25T01:18:51.456Z,11.57
2023-01-25T01:19:22.848Z,9.07
2023-01-25T01:19:54.202Z,10.52
2023-01-25T01:20:25.560Z,12.30
2023-01-25T01:20:56.966Z,12.82
2023-01-25T01:21:28.389Z,10.35
2023-01-25T01:21:59.737Z,11.48
2023-01-25T01:22:31.078Z,13.63
2023-01-25T01:23:02.447Z,12.02
2023-01-25T01:23:33.866Z,9.23
2023-01-25T01:24:05.522Z,11.65
2023-01-25T01:24:36.966Z,8.85
2023-01-25T01:25:08.970Z,8.57
2023-01-25T01:25:40.442Z,10.43
2023-01-25T01:26:12.960Z,10.17
2023-01-25T01:26:44.315Z,12.05
2023-01-25T01:27:15.647Z,12.25
2023-01-25T01:27:46.988Z,11.13
2023-01-25T01:28:18.360Z,9.63
2023-01-25T01:28:49.767Z,11.70
2023-01-25T01:29:21.145Z,9.93
2023-01-25T01:29:52.495Z,9.38
2023-01-25T01:30:23.889Z,10.32
2023-01-25T01:30:59.511Z,10.40
2023-01-25T01:31:31.004Z,10.48
2023-01-25T01:32:02.581Z,13.40
2023-01-25T01:32:34.166Z,10.35
2023-01-25T01:33:05.739Z,9.98
2023-01-25T01:33:37.104Z,10.20
2023-01-25T01:34:12.015Z,12.45
2023-01-25T01:34:43.354Z,10.88
2023-01-25T01:35:14.746Z,10.27
2023-01-25T01:35:46.087Z,11.23
2023-01-25T01:36:18.747Z,9.63
2023-01-25T01:36:50.178Z,10.10
2023-01-25T01:37:21.622Z,10.48
2023-01-25T01:37:52.958Z,13.43
2023-01-25T01:38:24.549Z,10.70
2023-01-25T01:38:55.953Z,10.88
2023-01-25T01:39:27.300Z,10.98
2023-01-25T01:39:58.654Z,9.85
2023-01-25T01:40:30.047Z,8.45
2023-01-25T01:41:01.377Z,11.32
2023-01-25T01:41:32.723Z,9.70
2023-01-25T01:42:04.138Z,12.00
2023-01-25T01:42:55.367Z,10.50
2023-01-25T01:43:26.739Z,9.95
2023-01-25T01:43:58.067Z,10.10
2023-01-25T01:44:44.506Z,9.90
2023-01-25T01:45:34.307Z,11.20
2023-01-25T01:46:09.423Z,14.25
2023-01-25T01:46:41.374Z,10.93
2023-01-25T01:47:17.916Z,10.30
2023-01-25T01:47:49.289Z,12.82
2023-01-25T01:48:20.642Z,11.15
2023-01-25T01:48:54.702Z,12.05
2023-01-25T01:49:27.435Z,12.57
2023-01-25T01:50:03.488Z,9.48
2023-01-25T01:50:35.460Z,9.13
2023-01-25T01:51:25.565Z,10.57
2023-01-25T01:51:56.907Z,8.80
2023-01-25T01:52:30.636Z,10.65
2023-01-25T01:53:02.045Z,9.57
2023-01-25T01:53:33.935Z,9.75
2023-01-25T01:54:37.486Z,11.38
2023-01-25T01:55:11.178Z,11.57
2023-01-25T01:55:43.093Z,10.10
2023-01-25T01:56:17.936Z,11.80
2023-01-25T01:57:00.615Z,11.27
2023-01-25T01:57:37.515Z,11.57
2023-01-25T01:58:08.914Z,10.23
2023-01-25T01:58:40.878Z,11.68
2023-01-25T01:59:12.507Z,12.27
2023-01-25T01:59:59.255Z,11.43
2023-01-25T02:00:32.539Z,10.48
2023-01-25T02:01:03.969Z,10.88
2023-01-25T02:01:35.424Z,8.70
2023-01-25T02:02:06.860Z,8.45
2023-01-25T02:02:38.295Z,10.27
2023-01-25T02:03:11.134Z,12.98
2023-01-25T02:03:42.717Z,8.82
2023-01-25T02:04:14.445Z,11.57
2023-01-25T02:04:47.290Z,12.70
2023-01-25T02:05:22.607Z,11.07
2023-01-25T02:06:03.226Z,9.90
2023-01-25T02:06:39.628Z,10.80
2023-01-25T02:07:18.888Z,12.48
2023-01-25T02:07:52.134Z,9.98
2023-01-25T02:08:23.556Z,10.77
2023-01-25T02:08:55.433Z,10.63
2023-01-25T02:09:27.701Z,10.68
2023-01-25T02:10:00.055Z,10.20
2023-01-25T02:10:31.524Z,12.80
2023-01-25T02:11:04.086Z,9.93
2023-01-25T02:11:35.785Z,11.15
2023-01-25T02:12:07.690Z,10.65
2023-01-25T02:12:39.219Z,9.32
2023-01-25T02:13:10.674Z,9.93
2023-01-25T02:13:42.017Z,10.85
2023-01-25T02:14:14.724Z,10.90
2023-01-25T02:14:48.500Z,13.88
2023-01-25T02:15:19.892Z,12.57
2023-01-25T02:15:51.791Z,10.53
2023-01-25T02:16:26.158Z,12.25
2023-01-25T02:16:57.987Z,10.50
2023-01-25T02:17:31.003Z,10.30
2023-01-25T02:18:02.391Z,11.38
2023-01-25T02:18:33.736Z,11.05
2023-01-25T02:19:05.301Z,9.45
2023-01-25T02:19:39.444Z,9.68
2023-01-25T02:20:29.391Z,10.55
2023-01-25T02:21:01.647Z,10.65
2023-01-25T02:21:37.898Z,10.90
2023-01-25T02:22:11.210Z,10.23
2023-01-25T02:22:48.555Z,9.48
2023-01-25T02:23:25.730Z,11.68
2023-01-25T02:24:01.294Z,11.95
2023-01-25T02:24:33.106Z,12.13
2023-01-25T02:25:06.184Z,12.13
2023-01-25T02:25:37.832Z,12.35
2023-01-25T02:26:09.447Z,10.93
2023-01-25T02:26:40.902Z,13.80
2023-01-25T02:27:12.253Z,9.48
2023-01-25T02:27:51.011Z,10.90
2023-01-25T02:28:36.311Z,10.80
2023-01-25T02:29:08.574Z,11.07
2023-01-25T02:29:40.309Z,9.45
2023-01-25T02:30:11.714Z,10.07
2023-01-25T02:30:43.553Z,11.85
2023-01-25T02:31:15.084Z,9.70
2023-01-25T02:31:47.465Z,9.52
2023-01-25T02:32:18.908Z,11.35
2023-01-25T02:32:50.307Z,10.18
2023-01-25T02:33:25.619Z,10.63
2023-01-25T02:33:56.961Z,10.93
2023-01-25T02:34:28.372Z,10.80
2023-01-25T02:34:59.712Z,10.32
2023-01-25T02:35:48.236Z,12.32
2023-01-25T02:36:30.266Z,12.55
2023-01-25T02:37:01.846Z,10.88
2023-01-25T02:37:33.449Z,10.38
2023-01-25T02:38:05.581Z,8.90
2023-01-25T02:38:42.370Z,8.95
2023-01-25T02:39:15.354Z,9.77
2023-01-25T02:39:46.724Z,11.95
2023-01-25T02:40:18.379Z,10.02
2023-01-25T02:40:58.822Z,9.93
2023-01-25T02:41:32.460Z,8.38
2023-01-25T02:42:03.818Z,8.95
2023-01-25T02:42:35.210Z,10.60
2023-01-25T02:43:06.579Z,9.75
2023-01-25T02:43:40.040Z,10.23
2023-01-25T02:44:11.355Z,11.25
2023-01-25T02:44:42.766Z,11.15
2023-01-25T02:45:16.084Z,8.88
2023-01-25T02:45:49.568Z,13.65
2023-01-25T02:46:25.626Z,9.82
2023-01-25T02:46:57.149Z,10.70
2023-01-25T02:47:28.614Z,9.27
2023-01-25T02:47:59.961Z,11.13
2023-01-25T02:48:31.312Z,10.57
2023-01-25T02:49:04.275Z,10.05
2023-01-25T02:49:38.704Z,10.20
2023-01-25T02:50:10.470Z,8.93
2023-01-25T02:50:41.925Z,10.73
2023-01-25T02:51:13.292Z,8.27
2023-01-25T02:51:45.998Z,11.13
2023-01-25T02:52:17.342Z,9.82
2023-01-25T02:52:48.761Z,9.48
2023-01-25T02:53:20.125Z,9.50
2023-01-25T02:53:51.649Z,10.27
2023-01-25T02:54:23.606Z,10.68
2023-01-25T02:54:54.948Z,10.30
2023-01-25T02:55:26.298Z,10.90
2023-01-25T02:55:57.720Z,9.68
2023-01-25T02:56:29.429Z,8.48
2023-01-25T02:57:00.775Z,9.07
2023-01-25T02:57:32.102Z,10.87
2023-01-25T02:58:03.523Z,8.65
2023-01-25T02:58:34.990Z,10.90
2023-01-25T02:59:06.666Z,9.38
2023-01-25T02:59:38.034Z,11.80
2023-01-25T03:00:09.761Z,8.05
2023-01-25T03:00:41.163Z,9.05
2023-01-25T03:01:13.348Z,7.30
2023-01-25T03:01:45.216Z,10.50
2023-01-25T03:02:16.631Z,10.55
2023-01-25T03:02:48.069Z,8.48
2023-01-25T03:03:19.449Z,8.95
2023-01-25T03:03:50.800Z,9.95
2023-01-25T03:04:22.191Z,10.17
2023-01-25T03:04:53.528Z,7.32
2023-01-25T03:05:24.909Z,10.63
2023-01-25T03:05:56.290Z,8.40
2023-01-25T03:06:27.598Z,9.52
2023-01-25T03:06:58.949Z,9.52
2023-01-25T03:07:30.335Z,8.88
2023-01-25T03:08:01.709Z,8.45
2023-01-25T03:08:33.351Z,10.00
2023-01-25T03:09:05.587Z,9.85
2023-01-25T03:09:36.973Z,9.07
2023-01-25T03:10:08.685Z,9.70
2023-01-25T03:10:40.016Z,6.72
2023-01-25T03:11:11.354Z,8.25
2023-01-25T03:11:42.702Z,8.25
2023-01-25T03:12:14.052Z,6.97
2023-01-25T03:12:45.406Z,7.68
2023-01-25T03:13:16.741Z,8.32
2023-01-25T03:13:48.105Z,8.25
2023-01-25T03:14:19.475Z,8.93
2023-01-25T03:14:51.143Z,8.73
2023-01-25T03:15:22.500Z,9.43
2023-01-25T03:15:58.666Z,8.45
2023-01-25T03:16:31.133Z,8.25
2023-01-25T03:17:02.516Z,8.35
2023-01-25T03:17:33.876Z,9.57
2023-01-25T03:18:05.247Z,9.10
2023-01-25T03:18:37.193Z,8.60
2023-01-25T03:19:08.585Z,8.32
2023-01-25T03:19:39.943Z,7.53
2023-01-25T03:20:11.765Z,7.63
2023-01-25T03:20:43.108Z,10.13
2023-01-25T03:21:18.998Z,9.27
2023-01-25T03:21:50.362Z,9.30
2023-01-25T03:22:21.701Z,8.98
2023-01-25T03:22:53.275Z,7.40
2023-01-25T03:23:24.615Z,7.82
2023-01-25T03:23:57.870Z,6.90
2023-01-25T03:24:29.356Z,8.80
2023-01-25T03:25:00.762Z,8.13
2023-01-25T03:25:32.170Z,8.70
2023-01-25T03:26:13.540Z,7.88
2023-01-25T03:26:44.954Z,9.35
2023-01-25T03:27:16.301Z,7.70
2023-01-25T03:27:48.383Z,9.77
2023-01-25T03:28:19.722Z,8.60
2023-01-25T03:28:51.178Z,8.63
2023-01-25T03:29:22.540Z,6.82
2023-01-25T03:29:53.881Z,8.15
2023-01-25T03:30:25.267Z,7.78
2023-01-25T03:30:56.618Z,7.05
2023-01-25T03:31:28.062Z,8.00
2023-01-25T03:31:59.629Z,8.77
2023-01-25T03:32:31.090Z,6.70
2023-01-25T03:33:02.634Z,8.82
2023-01-25T03:33:34.020Z,6.95
2023-01-25T03:34:05.381Z,7.50
2023-01-25T03:34:36.945Z,9.73
2023-01-25T03:35:08.880Z,7.55
2023-01-25T03:35:40.404Z,7.78
2023-01-25T03:36:11.797Z,8.25
2023-01-25T03:36:43.201Z,6.72
2023-01-25T03:37:14.557Z,7.85
2023-01-25T03:37:45.906Z,11.18
2023-01-25T03:38:17.229Z,6.10
2023-01-25T03:38:48.574Z,8.60
2023-01-25T03:39:19.916Z,7.35
2023-01-25T03:39:51.265Z,7.03
2023-01-25T03:40:22.612Z,7.37
2023-01-25T03:40:54.159Z,7.35
2023-01-25T03:41:25.598Z,9.20
2023-01-25T03:41:56.948Z,6.90
2023-01-25T03:42:28.306Z,6.80
2023-01-25T03:42:59.696Z,7.50
2023-01-25T03:43:31.780Z,7.90
2023-01-25T03:44:03.172Z,7.18
2023-01-25T03:44:34.536Z,6.20
2023-01-25T03:45:06.148Z,7.70
2023-01-25T03:45:37.485Z,6.57
2023-01-25T03:46:08.833Z,6.88
2023-01-25T03:46:41.028Z,5.97
2023-01-25T03:47:12.534Z,7.18
2023-01-25T03:47:43.929Z,7.72
2023-01-25T03:48:15.280Z,6.38
2023-01-25T03:48:46.630Z,6.53
2023-01-25T03:49:17.954Z,8.25
2023-01-25T03:49:49.303Z,8.50
2023-01-25T03:50:20.674Z,8.13
2023-01-25T03:50:52.970Z,7.15
2023-01-25T03:51:24.347Z,6.78
2023-01-25T03:51:55.715Z,7.63
2023-01-25T03:52:29.367Z,6.68
2023-01-25T03:53:08.281Z,6.20
2023-01-25T03:53:39.635Z,6.65
2023-01-25T03:54:10.991Z,8.05
2023-01-25T03:54:42.485Z,7.82
2023-01-25T03:55:13.824Z,8.48
2023-01-25T03:55:45.258Z,7.70
2023-01-25T03:56:16.616Z,6.65
2023-01-25T03:56:48.027Z,8.77
2023-01-25T03:57:19.352Z,7.90
2023-01-25T03:57:50.693Z,7.32
2023-01-25T03:58:22.328Z,6.28
2023-01-25T03:58:53.716Z,7.53
2023-01-25T03:59:25.177Z,8.30
2023-01-25T03:59:56.518Z,7.30
2023-01-25T04:00:27.855Z,5.85
2023-01-25T04:01:00.091Z,6.90
2023-01-25T04:01:31.516Z,6.55
2023-01-25T04:02:02.985Z,6.97
2023-01-25T04:02:34.572Z,8.73
2023-01-25T04:03:05.971Z,6.10
2023-01-25T04:03:37.369Z,6.53
2023-01-25T04:04:08.730Z,8.73
2023-01-25T04:04:40.091Z,7.45
2023-01-25T04:05:11.556Z,6.78
2023-01-25T04:05:42.993Z,7.30
2023-01-25T04:06:14.326Z,7.82
2023-01-25T04:06:45.680Z,6.97
2023-01-25T04:07:17.077Z,6.32
2023-01-25T04:07:48.432Z,5.70
2023-01-25T04:08:20.140Z,7.25
2023-01-25T04:08:51.957Z,6.95
2023-01-25T04:09:23.311Z,7.45
2023-01-25T04:09:54.630Z,6.40
2023-01-25T04:10:26.029Z,6.72
2023-01-25T04:11:00.387Z,6.63
2023-01-25T04:11:31.728Z,6.25
2023-01-25T04:12:03.085Z,4.95
2023-01-25T04:12:34.447Z,7.43
2023-01-25T04:13:05.808Z,6.20
2023-01-25T04:13:37.912Z,6.28
2023-01-25T04:14:10.107Z,6.97
2023-01-25T04:14:44.645Z,6.90
2023-01-25T04:15:16.375Z,7.80
2023-01-25T04:15:47.827Z,7.55
2023-01-25T04:16:19.261Z,6.30
2023-01-25T04:16:50.731Z,7.55
2023-01-25T04:17:22.106Z,7.93
2023-01-25T04:17:53.566Z,6.88
2023-01-25T04:18:24.911Z,6.00
2023-01-25T04:18:56.246Z,6.28
2023-01-25T04:19:27.580Z,7.50
2023-01-25T04:19:58.932Z,7.28
2023-01-25T04:20:30.257Z,6.78
2023-01-25T04:21:01.603Z,8.40
2023-01-25T04:21:32.970Z,6.65
2023-01-25T04:22:04.330Z,6.75
2023-01-25T04:22:35.705Z,7.05
2023-01-25T04:23:07.180Z,9.50
2023-01-25T04:23:38.539Z,7.50
2023-01-25T04:24:09.914Z,7.80
2023-01-25T04:24:41.287Z,7.00
2023-01-25T04:25:12.703Z,7.53
2023-01-25T04:25:44.037Z,7.45
2023-01-25T04:26:15.772Z,6.40
2023-01-25T04:26:47.113Z,7.72
2023-01-25T04:27:18.460Z,7.47
2023-01-25T04:27:50.038Z,6.90
2023-01-25T04:28:21.443Z,6.50
2023-01-25T04:28:52.778Z,7.63
2023-01-25T04:29:35.536Z,7.20
2023-01-25T04:30:11.833Z,8.18
2023-01-25T04:30:43.177Z,7.88
2023-01-25T04:31:14.590Z,7.03
2023-01-25T04:31:46.034Z,7.00
2023-01-25T04:32:17.522Z,7.00
2023-01-25T04:32:49.086Z,6.07
2023-01-25T04:33:20.867Z,7.25
2023-01-25T04:33:52.264Z,7.90
2023-01-25T04:34:23.620Z,7.22
2023-01-25T04:34:54.937Z,8.23
2023-01-25T04:35:26.293Z,6.32
2023-01-25T04:35:57.763Z,8.30
2023-01-25T04:36:29.111Z,8.77
2023-01-25T04:37:00.504Z,5.80
2023-01-25T04:37:31.871Z,7.87
2023-01-25T04:38:03.205Z,7.47
2023-01-25T04:38:34.576Z,7.60
2023-01-25T04:39:05.930Z,9.35
2023-01-25T04:39:37.291Z,6.03
2023-01-25T04:40:09.375Z,8.23
2023-01-25T04:40:40.738Z,7.32
2023-01-25T04:41:12.072Z,6.32
2023-01-25T04:41:44.753Z,6.45
2023-01-25T04:42:16.230Z,6.30
2023-01-25T04:42:47.599Z,7.30
2023-01-25T04:43:19.713Z,7.63
2023-01-25T04:43:51.070Z,7.40
2023-01-25T04:44:22.404Z,5.72
2023-01-25T04:44:53.730Z,7.35
2023-01-25T04:45:25.121Z,6.22
2023-01-25T04:45:56.514Z,6.97
2023-01-25T04:46:27.886Z,8.73
2023-01-25T04:46:59.258Z,7.57
2023-01-25T04:47:30.592Z,7.22
2023-01-25T04:48:03.045Z,7.97
2023-01-25T04:48:34.417Z,6.43
2023-01-25T04:49:05.776Z,6.40
2023-01-25T04:49:37.136Z,6.63
2023-01-25T04:50:08.763Z,8.60
2023-01-25T04:50:40.679Z,5.95
2023-01-25T04:51:12.073Z,6.20
2023-01-25T04:51:43.430Z,7.28
2023-01-25T04:52:14.779Z,7.40
2023-01-25T04:52:46.138Z,6.70
2023-01-25T04:53:17.500Z,6.93
2023-01-25T04:53:48.865Z,7.93
2023-01-25T04:54:20.306Z,6.75
2023-01-25T04:54:51.687Z,7.55
2023-01-25T04:55:23.216Z,6.13
2023-01-25T04:55:54.583Z,6.10
2023-01-25T04:56:25.916Z,6.43
2023-01-25T04:56:57.260Z,7.60
2023-01-25T04:57:28.597Z,6.10
2023-01-25T04:58:00.169Z,5.35
2023-01-25T04:58:31.505Z,7.18
2023-01-25T04:59:02.872Z,8.07
2023-01-25T04:59:34.253Z,7.22
2023-01-25T05:00:06.082Z,7.38
2023-01-25T05:00:37.453Z,6.77
2023-01-25T05:01:08.885Z,6.90
2023-01-25T05:01:40.318Z,6.38
2023-01-25T05:02:11.773Z,8.45
2023-01-25T05:02:43.266Z,7.63
2023-01-25T05:03:14.587Z,6.93
2023-01-25T05:03:45.977Z,5.10
2023-01-25T05:04:17.364Z,7.38
2023-01-25T05:04:48.731Z,6.90
2023-01-25T05:05:20.146Z,7.15
2023-01-25T05:05:51.500Z,6.93
2023-01-25T05:06:22.949Z,6.70
2023-01-25T05:06:54.330Z,5.30
2023-01-25T05:07:25.695Z,7.97
2023-01-25T05:07:57.144Z,8.30
2023-01-25T05:08:28.562Z,7.05
2023-01-25T05:08:59.919Z,8.13
2023-01-25T05:09:31.298Z,6.75
2023-01-25T05:10:03.239Z,9.00
2023-01-25T05:10:34.591Z,6.00
2023-01-25T05:11:05.933Z,8.23
2023-01-25T05:11:37.277Z,6.53
2023-01-25T05:12:08.621Z,6.72
2023-01-25T05:12:39.982Z,8.00
2023-01-25T05:13:11.398Z,6.60
2023-01-25T05:13:42.745Z,7.47
2023-01-25T05:14:14.097Z,6.78
2023-01-25T05:14:45.465Z,5.95
2023-01-25T05:15:16.860Z,5.97
2023-01-25T05:15:48.228Z,8.95
2023-01-25T05:16:19.632Z,7.18
2023-01-25T05:16:51.056Z,6.60
2023-01-25T05:17:22.527Z,5.70
2023-01-25T05:17:53.895Z,6.97
2023-01-25T05:18:26.300Z,6.72
2023-01-25T05:19:00.547Z,6.10
2023-01-25T05:19:32.393Z,7.15
2023-01-25T05:20:03.838Z,9.05
2023-01-25T05:20:35.620Z,9.23
2023-01-25T05:21:06.947Z,9.35
2023-01-25T05:21:38.373Z,10.02
2023-01-25T05:22:13.915Z,7.32
2023-01-25T05:22:45.282Z,9.52
2023-01-25T05:23:16.634Z,6.32
2023-01-25T05:23:48.024Z,6.80
2023-01-25T05:24:19.473Z,7.47
2023-01-25T05:24:50.874Z,9.23
2023-01-25T05:25:22.206Z,7.30
2023-01-25T05:25:53.595Z,7.72
2023-01-25T05:26:24.945Z,7.88
2023-01-25T05:26:56.975Z,8.65
2023-01-25T05:27:28.309Z,7.13
2023-01-25T05:27:59.660Z,8.60
2023-01-25T05:28:32.475Z,6.95
2023-01-25T05:29:03.826Z,7.85
2023-01-25T05:29:39.012Z,8.73
2023-01-25T05:30:10.575Z,9.43
2023-01-25T05:30:42.449Z,7.93
2023-01-25T05:31:13.865Z,8.23
2023-01-25T05:31:45.237Z,10.48
2023-01-25T05:32:18.416Z,7.57
2023-01-25T05:32:50.083Z,7.95
2023-01-25T05:33:21.436Z,7.55
2023-01-25T05:33:52.756Z,8.30
2023-01-25T05:34:24.162Z,8.10
2023-01-25T05:34:55.548Z,6.97
2023-01-25T05:35:27.094Z,7.90
2023-01-25T05:35:58.460Z,8.55
2023-01-25T05:36:29.883Z,9.10
2023-01-25T05:37:02.114Z,8.85
2023-01-25T05:37:33.430Z,9.38
2023-01-25T05:38:04.800Z,7.03
2023-01-25T05:38:36.162Z,9.50
2023-01-25T05:39:07.549Z,10.20
2023-01-25T05:39:38.928Z,9.98
2023-01-25T05:40:10.619Z,9.43
2023-01-25T05:40:41.993Z,11.65
2023-01-25T05:41:13.350Z,9.30
2023-01-25T05:41:44.743Z,11.27
2023-01-25T05:42:17.406Z,14.20
2023-01-25T05:42:58.351Z,12.75
2023-01-25T05:43:29.694Z,17.15
2023-01-25T05:44:01.031Z,17.75
2023-01-25T05:44:32.371Z,13.33
2023-01-25T05:45:03.845Z,13.02
2023-01-25T05:45:35.203Z,13.55
2023-01-25T05:46:06.578Z,12.48
2023-01-25T05:46:38.062Z,12.60
2023-01-25T05:47:13.344Z,12.00
2023-01-25T05:47:44.691Z,10.80
2023-01-25T05:48:16.057Z,10.13
2023-01-25T05:48:47.859Z,10.40
2023-01-25T05:49:19.225Z,9.50
2023-01-25T05:49:50.614Z,10.27
2023-01-25T05:50:22.512Z,11.23
2023-01-25T05:50:57.064Z,10.07
2023-01-25T05:51:28.401Z,10.35
2023-01-25T05:51:59.727Z,11.00
2023-01-25T05:52:31.110Z,8.83
2023-01-25T05:53:02.457Z,7.95
2023-01-25T05:53:33.837Z,11.57
2023-01-25T05:54:06.137Z,8.90
2023-01-25T05:54:37.500Z,10.40
2023-01-25T05:55:09.197Z,8.88
2023-01-25T05:55:40.671Z,11.00
2023-01-25T05:56:12.050Z,11.63
2023-01-25T05:56:43.814Z,10.23
2023-01-25T05:57:15.446Z,12.05
2023-01-25T05:57:46.831Z,10.93
2023-01-25T05:58:18.163Z,8.70
2023-01-25T05:58:56.100Z,10.98
2023-01-25T05:59:27.456Z,10.30
2023-01-25T05:59:58.790Z,10.50
2023-01-25T06:00:30.142Z,10.43
2023-01-25T06:01:02.778Z,9.77
2023-01-25T06:01:34.166Z,10.48
2023-01-25T06:02:05.522Z,11.30
2023-01-25T06:02:36.985Z,10.20
2023-01-25T06:03:08.743Z,10.40
2023-01-25T06:03:40.327Z,9.48
2023-01-25T06:04:15.299Z,12.05
2023-01-25T06:04:46.693Z,10.90
2023-01-25T06:05:18.031Z,10.20
2023-01-25T06:05:54.618Z,10.88
2023-01-25T06:06:26.139Z,7.90
2023-01-25T06:06:57.570Z,10.88
2023-01-25T06:07:28.922Z,10.40
2023-01-25T06:08:00.290Z,11.15
2023-01-25T06:08:32.032Z,10.85
2023-01-25T06:09:03.509Z,10.43
2023-01-25T06:09:34.839Z,10.40
2023-01-25T06:10:06.431Z,10.70
2023-01-25T06:10:37.772Z,11.30
2023-01-25T06:11:09.966Z,11.82
2023-01-25T06:11:43.222Z,15.27
2023-01-25T06:12:14.588Z,12.65
2023-01-25T06:12:45.970Z,11.23
2023-01-25T06:13:17.471Z,11.98
2023-01-25T06:13:49.186Z,11.65
2023-01-25T06:14:20.520Z,11.27
2023-01-25T06:14:51.874Z,14.40
2023-01-25T06:15:23.261Z,13.98
2023-01-25T06:15:55.457Z,18.52
2023-01-25T06:16:26.821Z,20.77
2023-01-25T06:16:58.228Z,19.30
2023-01-25T06:17:29.561Z,22.92
2023-01-25T06:18:00.923Z,17.08
2023-01-25T06:18:33.084Z,15.55
2023-01-25T06:19:05.400Z,17.52
2023-01-25T06:19:36.729Z,20.13
2023-01-25T06:20:08.435Z,27.05
2023-01-25T06:20:39.794Z,20.38
2023-01-25T06:21:11.263Z,17.65
2023-01-25T06:21:42.619Z,20.90
2023-01-25T06:22:14.385Z,20.27
2023-01-25T06:22:49.377Z,17.77
2023-01-25T06:23:20.756Z,17.98
2023-01-25T06:23:52.147Z,16.83
2023-01-25T06:24:23.744Z,15.02
2023-01-25T06:24:55.085Z,15.00
2023-01-25T06:25:26.460Z,16.65
2023-01-25T06:26:01.770Z,16.98
2023-01-25T06:26:33.292Z,17.23
2023-01-25T06:27:04.641Z,16.05
2023-01-25T06:27:35.955Z,15.52
2023-01-25T06:28:07.305Z,16.07
2023-01-25T06:28:38.850Z,16.70
2023-01-25T06:29:10.255Z,19.65
2023-01-25T06:29:41.690Z,17.52
2023-01-25T06:30:13.221Z,14.85
2023-01-25T06:30:44.604Z,16.33
2023-01-25T06:31:17.094Z,16.45
2023-01-25T06:31:48.568Z,15.98
2023-01-25T06:32:19.927Z,13.98
2023-01-25T06:32:51.301Z,18.95
2023-01-25T06:33:22.663Z,16.50
2023-01-25T06:33:54.031Z,15.90
2023-01-25T06:34:25.372Z,13.75
2023-01-25T06:34:56.737Z,15.48
2023-01-25T06:35:28.576Z,13.48
2023-01-25T06:36:00.758Z,14.03
2023-01-25T06:36:32.297Z,13.10
2023-01-25T06:37:03.741Z,13.27
2023-01-25T06:37:35.052Z,11.85
2023-01-25T06:38:06.595Z,16.08
2023-01-25T06:38:38.159Z,14.25
2023-01-25T06:39:09.525Z,15.95
2023-01-25T06:39:40.885Z,16.73
2023-01-25T06:40:12.333Z,13.55
2023-01-25T06:40:43.690Z,14.52
2023-01-25T06:41:15.041Z,13.45
2023-01-25T06:41:46.853Z,13.43
2023-01-25T06:42:18.201Z,13.90
2023-01-25T06:42:49.569Z,15.35
2023-01-25T06:43:20.943Z,14.27
2023-01-25T06:43:52.618Z,14.35
2023-01-25T06:44:23.965Z,14.40
2023-01-25T06:44:55.305Z,12.18
2023-01-25T06:45:26.654Z,13.55
2023-01-25T06:46:01.568Z,12.32
2023-01-25T06:46:32.956Z,13.30
2023-01-25T06:47:04.320Z,12.43
2023-01-25T06:47:35.667Z,12.48
2023-01-25T06:48:07.105Z,11.63
2023-01-25T06:48:38.659Z,14.00
2023-01-25T06:49:10.579Z,12.93
2023-01-25T06:49:41.944Z,13.05
2023-01-25T06:50:13.285Z,14.33
2023-01-25T06:50:44.663Z,15.55
2023-01-25T06:51:16.052Z,14.55
2023-01-25T06:51:47.408Z,13.90
2023-01-25T06:52:18.780Z,16.08
2023-01-25T06:52:53.281Z,13.18
2023-01-25T06:53:25.534Z,15.80
2023-01-25T06:53:56.863Z,13.88
2023-01-25T06:54:28.291Z,12.27
2023-01-25T06:54:59.659Z,14.85
2023-01-25T06:55:31.001Z,14.40
2023-01-25T06:56:06.539Z,12.57
2023-01-25T06:56:37.879Z,15.75
2023-01-25T06:57:09.232Z,14.10
2023-01-25T06:57:40.637Z,11.68
2023-01-25T06:58:12.110Z,12.85
2023-01-25T06:58:43.659Z,16.20
2023-01-25T06:59:15.066Z,14.45
2023-01-25T06:59:46.648Z,14.03
2023-01-25T07:00:18.200Z,16.17
2023-01-25T07:00:49.553Z,16.08
2023-01-25T07:01:22.180Z,15.40
2023-01-25T07:01:53.612Z,14.13